Time;durP1;ratioP1;P1;durP2;ratioP2;P2;SDS_P1;SDS_P2;PMS_P1;PMS_P2;Temp;Humidity;BMP_temperature;BMP_pressure;BME280_temperature;BME280_humidity;BME280_pressure;Samples;Min_cycle;Max_cycle;Signal;HPM_P1;HPM_P2
2023/06/17 00:00:09;;;;;;;18.43;14.50;;;17.10;99.90;;;;;;5079326;28;20224;-56
2023/06/17 00:02:37;;;;;;;18.20;15.23;;;17.10;99.90;;;;;;5074660;28;20703;-56
2023/06/17 00:05:06;;;;;;;18.20;15.90;;;17.20;99.90;;;;;;5075568;28;20556;-57
2023/06/17 00:07:34;;;;;;;17.77;16.03;;;17.20;99.90;;;;;;5075541;28;20303;-57
2023/06/17 00:10:02;;;;;;;16.87;15.27;;;17.10;99.90;;;;;;5086445;28;20302;-57
2023/06/17 00:12:31;;;;;;;18.80;15.73;;;17.20;99.90;;;;;;5100088;28;20220;-57
2023/06/17 00:15:02;;;;;;;19.13;15.60;;;17.20;99.90;;;;;;5089420;28;20216;-56
2023/06/17 00:17:31;;;;;;;18.50;16.27;;;17.20;99.90;;;;;;5092644;28;20224;-56
2023/06/17 00:20:00;;;;;;;17.97;15.40;;;17.20;99.90;;;;;;5108335;28;20307;-57
2023/06/17 00:22:34;;;;;;;23.30;18.33;;;17.20;99.90;;;;;;5115879;28;20223;-57
2023/06/17 00:25:03;;;;;;;18.57;16.57;;;17.30;99.90;;;;;;5095551;28;20226;-57
2023/06/17 00:27:31;;;;;;;19.37;17.30;;;17.30;99.90;;;;;;5094613;28;20227;-57
2023/06/17 00:30:00;;;;;;;19.27;17.27;;;17.30;99.90;;;;;;5084784;28;20639;-57
2023/06/17 00:32:30;;;;;;;20.63;16.37;;;17.30;99.90;;;;;;5076709;28;20728;-57
2023/06/17 00:34:58;;;;;;;20.10;18.03;;;17.30;99.90;;;;;;5085869;28;20360;-57
2023/06/17 00:37:28;;;;;;;20.40;17.97;;;17.30;99.90;;;;;;5094738;28;20219;-57
2023/06/17 00:39:57;;;;;;;26.60;22.03;;;17.30;99.90;;;;;;5097199;28;20224;-57
2023/06/17 00:42:25;;;;;;;21.43;19.13;;;17.30;99.90;;;;;;5088810;28;20715;-55
2023/06/17 00:44:53;;;;;;;24.53;21.33;;;17.30;99.90;;;;;;5096276;28;20241;-56
2023/06/17 00:47:23;;;;;;;23.13;20.57;;;17.30;99.90;;;;;;5069243;28;20765;-57
2023/06/17 00:49:53;;;;;;;26.20;23.40;;;17.30;99.90;;;;;;5106900;28;20276;-57
2023/06/17 00:52:22;;;;;;;23.30;20.80;;;17.30;99.90;;;;;;5115496;28;20224;-56
2023/06/17 00:55:09;;;;;;;22.17;19.70;;;17.30;99.90;;;;;;5101486;28;20710;-57
2023/06/17 00:57:38;;;;;;;24.83;22.03;;;17.30;99.90;;;;;;5066492;28;20260;-54
2023/06/17 01:00:10;;;;;;;22.80;20.37;;;17.30;99.90;;;;;;5085029;28;20308;-57
2023/06/17 01:02:46;;;;;;;22.33;20.03;;;17.30;99.90;;;;;;5075765;28;20314;-56
2023/06/17 01:05:17;;;;;;;22.43;19.80;;;17.30;99.90;;;;;;5069785;28;20278;-57
2023/06/17 01:07:57;;;;;;;21.87;19.47;;;17.30;99.90;;;;;;5074392;28;20221;-57
2023/06/17 01:10:35;;;;;;;23.07;20.30;;;17.30;99.90;;;;;;5078285;28;20301;-56
2023/06/17 01:13:04;;;;;;;22.57;20.17;;;17.30;99.90;;;;;;5075421;28;20316;-57
2023/06/17 01:15:34;;;;;;;22.20;19.90;;;17.30;99.90;;;;;;5094006;28;20223;-56
2023/06/17 01:18:07;;;;;;;22.37;19.20;;;17.30;99.90;;;;;;5079400;28;20226;-57
2023/06/17 01:20:37;;;;;;;23.07;19.43;;;17.30;99.90;;;;;;5097955;28;20243;-57
2023/06/17 01:23:06;;;;;;;19.50;17.50;;;17.30;99.90;;;;;;5094430;28;20216;-57
2023/06/17 01:25:37;;;;;;;20.70;18.47;;;17.30;99.90;;;;;;5097531;28;20694;-56
2023/06/17 01:28:15;;;;;;;23.00;18.47;;;17.40;99.90;;;;;;5074139;28;20252;-57
2023/06/17 01:30:44;;;;;;;20.33;18.23;;;17.30;99.90;;;;;;5073528;28;20232;-56
2023/06/17 01:33:13;;;;;;;23.07;19.23;;;17.30;99.90;;;;;;5072798;28;20279;-57
2023/06/17 01:35:46;;;;;;;21.13;17.87;;;17.30;99.90;;;;;;5073746;28;20316;-57
2023/06/17 01:38:21;;;;;;;21.63;19.17;;;17.30;99.90;;;;;;5073954;28;20231;-57
2023/06/17 01:40:59;;;;;;;23.80;19.60;;;17.30;99.90;;;;;;5065047;28;20231;-56
2023/06/17 01:43:28;;;;;;;20.73;18.50;;;17.30;99.90;;;;;;5098764;28;20220;-56
2023/06/17 01:45:57;;;;;;;21.80;19.30;;;17.30;99.90;;;;;;5074803;28;20272;-57
2023/06/17 01:48:26;;;;;;;20.43;18.27;;;17.30;99.90;;;;;;5083981;28;20693;-57
2023/06/17 01:50:55;;;;;;;24.63;19.83;;;17.30;99.90;;;;;;5066954;28;20232;-56
2023/06/17 01:53:24;;;;;;;21.27;18.67;;;17.30;99.90;;;;;;5078290;28;20251;-56
2023/06/17 01:55:54;;;;;;;21.70;18.37;;;17.30;99.90;;;;;;5072326;28;20225;-56
2023/06/17 01:58:23;;;;;;;20.90;18.70;;;17.30;99.90;;;;;;5075632;28;20267;-55
2023/06/17 02:00:51;;;;;;;24.20;19.57;;;17.30;99.90;;;;;;5073785;28;20227;-57
2023/06/17 02:03:19;;;;;;;22.43;18.77;;;17.30;99.90;;;;;;5075396;28;20242;-57
2023/06/17 02:05:47;;;;;;;20.33;18.10;;;17.30;99.90;;;;;;5075312;28;20269;-57
2023/06/17 02:08:15;;;;;;;20.53;17.23;;;17.30;99.90;;;;;;5090779;28;20269;-57
2023/06/17 02:10:43;;;;;;;24.53;20.20;;;17.30;99.90;;;;;;5070309;28;20227;-57
2023/06/17 02:13:13;;;;;;;20.40;18.13;;;17.30;99.90;;;;;;5082340;28;20224;-57
2023/06/17 02:15:42;;;;;;;24.23;19.17;;;17.30;99.90;;;;;;5074322;28;20226;-57
2023/06/17 02:18:14;;;;;;;24.30;19.17;;;17.30;99.90;;;;;;5100997;28;20218;-56
2023/06/17 02:20:44;;;;;;;20.87;18.80;;;17.30;99.90;;;;;;5092811;28;20732;-57
2023/06/17 02:23:12;;;;;;;24.50;19.43;;;17.30;99.90;;;;;;5095231;28;20321;-56
2023/06/17 02:25:41;;;;;;;22.00;18.27;;;17.30;99.90;;;;;;5076861;28;20240;-56
2023/06/17 02:28:09;;;;;;;22.90;19.43;;;17.30;99.90;;;;;;5074836;28;20260;-56
2023/06/17 02:30:39;;;;;;;24.93;20.33;;;17.30;99.90;;;;;;5074251;28;20231;-56
2023/06/17 02:33:07;;;;;;;23.93;19.50;;;17.30;99.90;;;;;;5075066;28;20322;-57
2023/06/17 02:35:35;;;;;;;21.90;18.63;;;17.30;99.90;;;;;;5092028;28;20691;-57
2023/06/17 02:38:04;;;;;;;21.90;19.63;;;17.40;99.90;;;;;;5071745;28;20276;-57
2023/06/17 02:40:32;;;;;;;22.53;18.83;;;17.30;99.90;;;;;;5100437;28;20223;-57
2023/06/17 02:43:00;;;;;;;26.17;21.37;;;17.40;99.90;;;;;;5080045;28;20255;-57
2023/06/17 02:45:28;;;;;;;23.50;20.40;;;17.40;99.90;;;;;;5113182;28;20220;-57
2023/06/17 02:47:58;;;;;;;24.67;21.57;;;17.30;99.90;;;;;;5098572;28;20328;-56
2023/06/17 02:50:26;;;;;;;27.17;22.10;;;17.30;99.90;;;;;;5079637;28;20220;-54
2023/06/17 02:52:56;;;;;;;25.07;22.00;;;17.30;99.90;;;;;;5092869;28;20222;-56
2023/06/17 02:55:27;;;;;;;24.60;21.47;;;17.30;99.90;;;;;;5070019;28;20257;-57
2023/06/17 02:57:58;;;;;;;22.27;19.67;;;17.30;99.90;;;;;;5070053;28;20232;-56
2023/06/17 03:00:32;;;;;;;25.23;22.57;;;17.30;99.90;;;;;;5074104;28;20706;-57
2023/06/17 03:03:02;;;;;;;22.93;20.57;;;17.30;99.90;;;;;;5092779;28;20220;-57
2023/06/17 03:05:30;;;;;;;24.23;20.73;;;17.30;99.90;;;;;;5074415;28;20231;-57
2023/06/17 03:07:58;;;;;;;22.80;20.07;;;17.30;99.90;;;;;;5067718;28;20219;-56
2023/06/17 03:10:27;;;;;;;27.23;21.60;;;17.30;99.90;;;;;;5074206;28;20231;-56
2023/06/17 03:13:04;;;;;;;23.20;20.47;;;17.30;99.90;;;;;;5079573;28;20226;-57
2023/06/17 03:15:32;;;;;;;23.10;19.80;;;17.30;99.90;;;;;;5112779;28;20642;-57
2023/06/17 03:18:03;;;;;;;24.27;20.27;;;17.30;99.90;;;;;;5101496;28;20216;-57
2023/06/17 03:20:32;;;;;;;21.67;19.37;;;17.30;99.90;;;;;;5056074;28;20332;-57
2023/06/17 03:23:02;;;;;;;20.77;18.20;;;17.30;99.90;;;;;;5052361;28;20684;-56
2023/06/17 03:25:31;;;;;;;23.07;19.67;;;17.30;99.90;;;;;;5070629;28;20230;-56
2023/06/17 03:28:01;;;;;;;22.90;18.40;;;17.30;99.90;;;;;;5059463;28;20601;-56
2023/06/17 03:30:30;;;;;;;22.37;18.37;;;17.30;99.90;;;;;;5051786;28;20232;-56
2023/06/17 03:32:58;;;;;;;25.20;17.83;;;17.30;99.90;;;;;;5051000;28;20328;-56
2023/06/17 03:35:28;;;;;;;21.80;18.17;;;17.30;99.90;;;;;;5050647;28;20225;-57
2023/06/17 03:37:56;;;;;;;24.33;17.87;;;17.30;99.90;;;;;;5060157;28;20327;-56
2023/06/17 03:40:25;;;;;;;23.13;17.63;;;17.40;99.90;;;;;;5081302;28;20276;-55
2023/06/17 03:42:54;;;;;;;20.67;17.53;;;17.30;99.90;;;;;;5069400;28;20680;-56
2023/06/17 03:45:23;;;;;;;21.03;16.60;;;17.30;99.90;;;;;;5054782;28;20260;-56
2023/06/17 03:47:54;;;;;;;23.10;17.03;;;17.40;99.90;;;;;;5073511;28;20564;-55
2023/06/17 03:50:22;;;;;;;21.40;16.80;;;17.40;99.90;;;;;;5085473;28;20264;-56
2023/06/17 03:52:52;;;;;;;21.27;16.40;;;17.40;99.90;;;;;;5094862;28;20750;-57
2023/06/17 03:55:22;;;;;;;21.80;16.27;;;17.40;99.90;;;;;;5071205;28;20229;-56
2023/06/17 03:57:50;;;;;;;18.10;15.33;;;17.40;99.90;;;;;;5066665;28;20347;-57
2023/06/17 04:00:19;;;;;;;21.53;16.47;;;17.40;99.90;;;;;;5054082;28;20596;-57
2023/06/17 04:02:49;;;;;;;22.67;17.00;;;17.40;99.90;;;;;;5054390;28;20280;-57
2023/06/17 04:05:33;;;;;;;20.20;16.57;;;17.40;99.90;;;;;;5054286;28;20261;-55
2023/06/17 04:08:03;;;;;;;21.37;16.43;;;17.40;99.90;;;;;;5054435;28;20642;-56
2023/06/17 04:10:34;;;;;;;21.20;16.43;;;17.50;99.90;;;;;;5055441;28;20304;-56
2023/06/17 04:13:02;;;;;;;20.93;17.43;;;17.50;99.90;;;;;;5056587;28;20275;-57
2023/06/17 04:15:30;;;;;;;19.27;16.03;;;17.50;99.90;;;;;;5054072;28;20229;-57
2023/06/17 04:18:00;;;;;;;24.63;17.20;;;17.50;99.90;;;;;;5073574;28;20708;-57
2023/06/17 04:20:28;;;;;;;21.27;15.83;;;17.60;99.90;;;;;;5073460;28;20247;-57
2023/06/17 04:22:56;;;;;;;20.30;16.13;;;17.60;99.90;;;;;;5074027;28;20220;-56
2023/06/17 04:25:25;;;;;;;20.30;16.43;;;17.60;99.90;;;;;;5079515;28;20719;-55
2023/06/17 04:27:56;;;;;;;18.77;16.53;;;17.50;99.90;;;;;;5069279;28;20212;-56
2023/06/17 04:30:25;;;;;;;20.10;16.00;;;17.50;99.90;;;;;;5053464;28;20229;-57
2023/06/17 04:32:58;;;;;;;23.17;17.33;;;17.50;99.90;;;;;;5055263;28;20263;-54
2023/06/17 04:35:26;;;;;;;19.40;16.07;;;17.50;99.90;;;;;;5053665;28;20277;-55
2023/06/17 04:37:55;;;;;;;20.13;15.70;;;17.50;99.90;;;;;;5053707;28;20670;-57
2023/06/17 04:40:27;;;;;;;22.23;16.77;;;17.50;99.90;;;;;;5053757;28;20641;-57
2023/06/17 04:42:55;;;;;;;18.47;15.27;;;17.50;99.90;;;;;;5054826;28;20224;-55
2023/06/17 04:45:25;;;;;;;20.97;15.53;;;17.60;99.90;;;;;;5053498;28;20315;-56
2023/06/17 04:48:03;;;;;;;23.30;17.27;;;17.60;99.90;;;;;;5081706;28;20692;-56
2023/06/17 04:50:32;;;;;;;19.03;15.70;;;17.60;99.90;;;;;;5065448;28;20308;-57
2023/06/17 04:53:04;;;;;;;21.47;15.90;;;17.70;99.90;;;;;;5073298;28;20592;-56
2023/06/17 04:55:37;;;;;;;20.27;16.20;;;17.70;99.90;;;;;;5077020;28;20307;-56
2023/06/17 04:58:09;;;;;;;18.57;15.93;;;17.70;99.90;;;;;;5054447;28;20321;-57
2023/06/17 05:00:57;;;;;;;21.27;16.37;;;17.70;99.90;;;;;;5053943;28;20249;-56
2023/06/17 05:03:27;;;;;;;20.43;16.50;;;17.80;99.90;;;;;;5053177;28;20236;-56
2023/06/17 05:05:56;;;;;;;19.40;15.33;;;17.90;99.90;;;;;;5053311;28;20230;-57
2023/06/17 05:08:28;;;;;;;21.73;16.93;;;17.90;99.90;;;;;;5053340;28;20242;-57
2023/06/17 05:10:59;;;;;;;23.87;17.17;;;17.90;99.90;;;;;;5053045;28;20230;-56
2023/06/17 05:13:29;;;;;;;18.83;15.63;;;17.90;99.90;;;;;;5066038;28;20227;-56
2023/06/17 05:15:58;;;;;;;24.17;16.90;;;18.00;99.90;;;;;;5075366;28;20229;-57
2023/06/17 05:18:27;;;;;;;21.43;16.13;;;18.00;99.90;;;;;;5074249;28;20236;-57
2023/06/17 05:20:55;;;;;;;22.80;16.13;;;18.00;99.90;;;;;;5083734;28;20297;-56
2023/06/17 05:23:23;;;;;;;21.70;14.97;;;18.10;99.90;;;;;;5088983;28;20236;-56
2023/06/17 05:25:52;;;;;;;24.70;16.43;;;18.20;99.90;;;;;;5076532;28;20310;-56
2023/06/17 05:28:22;;;;;;;24.40;16.47;;;18.20;99.90;;;;;;5075140;28;20224;-53
2023/06/17 05:30:50;;;;;;;20.80;16.13;;;18.20;99.90;;;;;;5091630;28;20585;-56
2023/06/17 05:33:21;;;;;;;25.93;15.83;;;18.20;99.90;;;;;;5067060;28;20237;-55
2023/06/17 05:35:50;;;;;;;25.93;17.10;;;18.30;99.90;;;;;;5071804;28;20228;-57
2023/06/17 05:38:18;;;;;;;24.57;16.83;;;18.30;99.90;;;;;;5075090;28;20716;-54
2023/06/17 05:40:46;;;;;;;25.83;17.00;;;18.30;99.90;;;;;;5074920;28;20252;-55
2023/06/17 05:43:14;;;;;;;21.90;16.50;;;18.30;99.90;;;;;;5075016;28;20303;-56
2023/06/17 05:45:44;;;;;;;21.03;16.60;;;18.30;99.90;;;;;;5058259;28;20236;-56
2023/06/17 05:48:13;;;;;;;23.40;16.50;;;18.30;99.90;;;;;;5071193;28;20701;-56
2023/06/17 05:50:41;;;;;;;23.07;16.47;;;18.20;99.90;;;;;;5092807;28;20218;-56
2023/06/17 05:53:09;;;;;;;25.27;15.73;;;18.30;99.90;;;;;;5075317;28;20220;-56
2023/06/17 05:55:38;;;;;;;20.57;15.90;;;18.40;99.90;;;;;;5077794;28;20656;-56
2023/06/17 05:58:06;;;;;;;21.50;16.17;;;18.40;99.90;;;;;;5074090;28;20228;-56
2023/06/17 06:00:36;;;;;;;24.50;16.37;;;18.40;99.90;;;;;;5069692;28;20712;-57
2023/06/17 06:03:05;;;;;;;23.93;16.20;;;18.40;99.90;;;;;;5089770;28;20592;-56
2023/06/17 06:05:33;;;;;;;22.43;16.17;;;18.50;99.90;;;;;;5071634;28;20236;-56
2023/06/17 06:08:01;;;;;;;18.23;15.47;;;18.50;99.90;;;;;;5092399;28;20277;-56
2023/06/17 06:10:29;;;;;;;26.50;16.40;;;18.60;99.90;;;;;;5089754;28;20707;-56
2023/06/17 06:13:00;;;;;;;23.63;16.33;;;18.70;99.90;;;;;;5071165;28;20225;-56
2023/06/17 06:15:30;;;;;;;25.37;18.03;;;18.70;99.90;;;;;;5072386;28;20226;-56
2023/06/17 06:17:58;;;;;;;23.20;16.33;;;18.70;99.90;;;;;;5095360;28;20268;-56
2023/06/17 06:20:28;;;;;;;25.63;17.10;;;18.70;99.90;;;;;;5031657;28;1178982;-56
2023/06/17 06:22:57;;;;;;;22.27;16.40;;;18.70;99.90;;;;;;5068945;28;20222;-56
2023/06/17 06:25:25;;;;;;;23.50;16.13;;;18.80;99.90;;;;;;5071301;28;20222;-55
2023/06/17 06:27:53;;;;;;;22.53;15.83;;;18.90;99.90;;;;;;5072457;28;20219;-56
2023/06/17 06:30:26;;;;;;;27.03;17.93;;;18.90;99.90;;;;;;5070006;28;20222;-56
2023/06/17 06:32:55;;;;;;;23.97;17.13;;;19.00;99.90;;;;;;5068562;28;20228;-56
2023/06/17 06:35:24;;;;;;;22.93;16.27;;;19.00;99.90;;;;;;5071177;28;20312;-54
2023/06/17 06:37:54;;;;;;;24.73;17.37;;;19.00;99.90;;;;;;5069867;28;20234;-56
2023/06/17 06:40:23;;;;;;;21.30;16.90;;;19.00;99.90;;;;;;5071132;28;20296;-57
2023/06/17 06:42:51;;;;;;;26.10;18.00;;;19.10;99.90;;;;;;5070939;28;20246;-56
2023/06/17 06:45:23;;;;;;;23.83;17.30;;;19.10;99.90;;;;;;5067602;28;20221;-56
2023/06/17 06:47:51;;;;;;;21.60;16.27;;;19.10;99.90;;;;;;5072762;28;20215;-57
2023/06/17 06:50:19;;;;;;;26.63;16.57;;;19.10;99.90;;;;;;5071091;28;20241;-57
2023/06/17 06:52:50;;;;;;;23.77;16.57;;;19.10;99.90;;;;;;5077799;28;20221;-56
2023/06/17 06:55:20;;;;;;;21.77;16.93;;;19.10;99.90;;;;;;5074604;28;20631;-56
2023/06/17 06:57:51;;;;;;;23.63;16.73;;;19.20;99.90;;;;;;5063397;28;20234;-55
2023/06/17 07:00:20;;;;;;;26.00;17.87;;;19.20;99.90;;;;;;5064121;28;20236;-56
2023/06/17 07:02:50;;;;;;;23.93;18.20;;;19.30;99.90;;;;;;5065984;28;20226;-56
2023/06/17 07:05:22;;;;;;;22.07;17.33;;;19.30;99.90;;;;;;5071270;28;20264;-56
2023/06/17 07:07:54;;;;;;;21.23;17.07;;;19.30;99.90;;;;;;5071123;28;20229;-56
2023/06/17 07:10:23;;;;;;;23.57;16.93;;;19.40;99.90;;;;;;5070311;28;20219;-55
2023/06/17 07:12:52;;;;;;;24.20;17.67;;;19.50;99.90;;;;;;5070833;28;20230;-54
2023/06/17 07:15:20;;;;;;;28.23;16.97;;;19.50;99.90;;;;;;5068102;28;20226;-56
2023/06/17 07:17:50;;;;;;;27.00;17.27;;;19.60;99.90;;;;;;5079142;28;20275;-56
2023/06/17 07:20:18;;;;;;;21.33;16.87;;;19.80;99.90;;;;;;5059487;28;20243;-55
2023/06/17 07:22:48;;;;;;;21.83;15.57;;;19.90;99.90;;;;;;5053737;28;20230;-56
2023/06/17 07:25:17;;;;;;;23.90;17.37;;;20.00;99.90;;;;;;5051726;28;20303;-56
2023/06/17 07:27:47;;;;;;;22.97;16.30;;;20.20;99.90;;;;;;5053281;28;20227;-54
2023/06/17 07:30:15;;;;;;;20.17;15.60;;;20.30;99.90;;;;;;5050450;28;20282;-54
2023/06/17 07:32:43;;;;;;;22.70;17.00;;;20.40;99.90;;;;;;5049696;28;20722;-53
2023/06/17 07:35:12;;;;;;;23.97;16.70;;;20.50;99.90;;;;;;5051440;28;20330;-55
2023/06/17 07:37:40;;;;;;;25.73;17.60;;;20.50;99.90;;;;;;5053319;28;20230;-53
2023/06/17 07:40:10;;;;;;;20.73;15.67;;;20.50;99.90;;;;;;5050755;28;20360;-56
2023/06/17 07:42:42;;;;;;;22.83;16.70;;;20.60;99.90;;;;;;5053071;28;21196;-53
2023/06/17 07:45:12;;;;;;;22.47;17.03;;;20.60;99.90;;;;;;5053530;28;20750;-55
2023/06/17 07:47:40;;;;;;;23.70;16.30;;;20.80;99.90;;;;;;5053746;28;20235;-54
2023/06/17 07:50:09;;;;;;;21.53;15.60;;;20.80;99.90;;;;;;5052058;28;20967;-54
2023/06/17 07:52:38;;;;;;;21.97;15.77;;;20.90;99.90;;;;;;5052925;28;20281;-52
2023/06/17 07:55:08;;;;;;;22.37;15.77;;;20.90;99.90;;;;;;5054103;28;20224;-54
2023/06/17 07:57:36;;;;;;;19.63;15.50;;;21.00;99.90;;;;;;5053043;28;20265;-55
2023/06/17 08:00:09;;;;;;;18.97;14.43;;;21.00;99.90;;;;;;5050897;28;20231;-54
2023/06/17 08:02:44;;;;;;;25.27;16.10;;;20.90;99.90;;;;;;5052569;28;20238;-56
2023/06/17 08:05:13;;;;;;;20.80;15.37;;;21.00;99.90;;;;;;5050701;28;20715;-55
2023/06/17 08:07:41;;;;;;;21.23;15.80;;;21.10;99.90;;;;;;5053028;28;20707;-53
2023/06/17 08:10:09;;;;;;;21.40;15.23;;;21.10;99.90;;;;;;5051114;28;20227;-55
2023/06/17 08:12:38;;;;;;;20.97;15.47;;;21.20;99.90;;;;;;5053282;28;20758;-53
2023/06/17 08:15:07;;;;;;;21.90;14.97;;;21.30;99.90;;;;;;5053423;28;20706;-55
2023/06/17 08:17:36;;;;;;;18.37;13.90;;;21.40;99.90;;;;;;5053347;28;20694;-54
2023/06/17 08:20:09;;;;;;;20.30;15.77;;;21.50;99.90;;;;;;5065927;28;20248;-54
2023/06/17 08:22:38;;;;;;;19.27;15.53;;;21.80;99.90;;;;;;5075110;28;20280;-55
2023/06/17 08:25:06;;;;;;;20.83;14.97;;;22.00;99.90;;;;;;5076670;28;20230;-55
2023/06/17 08:27:34;;;;;;;21.00;15.50;;;22.00;99.90;;;;;;5076545;28;20230;-54
2023/06/17 08:30:03;;;;;;;19.40;14.50;;;22.10;99.90;;;;;;5075501;28;20229;-51
2023/06/17 08:32:31;;;;;;;19.17;13.57;;;22.30;99.90;;;;;;5075957;28;20328;-56
2023/06/17 08:35:05;;;;;;;17.80;14.07;;;22.40;99.90;;;;;;5076513;28;20233;-56
2023/06/17 08:37:34;;;;;;;15.67;13.23;;;22.60;99.90;;;;;;5077239;28;20222;-54
2023/06/17 08:40:03;;;;;;;17.83;13.50;;;23.20;99.90;;;;;;5075287;28;21556;-55
2023/06/17 08:42:32;;;;;;;20.43;14.33;;;23.60;99.90;;;;;;5076422;28;20226;-53
2023/06/17 08:45:02;;;;;;;15.93;12.50;;;24.30;99.90;;;;;;5077219;28;20273;-55
2023/06/17 08:47:30;;;;;;;14.93;10.93;;;25.70;99.90;;;;;;5077080;28;20567;-56
2023/06/17 08:49:59;;;;;;;15.57;11.40;;;26.80;99.90;;;;;;5074694;28;20249;-55
2023/06/17 08:52:29;;;;;;;13.27;11.20;;;27.00;99.90;;;;;;5075865;28;20235;-55
2023/06/17 08:55:00;;;;;;;15.77;12.03;;;27.00;99.90;;;;;;5076532;28;20229;-56
2023/06/17 08:57:29;;;;;;;14.83;12.17;;;27.00;99.90;;;;;;5076560;28;20229;-55
2023/06/17 08:59:57;;;;;;;18.47;13.57;;;26.40;99.90;;;;;;5075204;28;20240;-55
2023/06/17 09:02:26;;;;;;;15.73;12.73;;;25.80;99.90;;;;;;5076471;28;20570;-54
2023/06/17 09:04:54;;;;;;;18.23;12.73;;;25.20;99.90;;;;;;5075987;28;20823;-55
2023/06/17 09:07:23;;;;;;;15.43;12.40;;;24.90;99.90;;;;;;5077288;28;20228;-53
2023/06/17 09:09:55;;;;;;;15.00;11.87;;;25.20;99.90;;;;;;5074508;28;20949;-55
2023/06/17 09:12:25;;;;;;;17.23;12.37;;;25.90;99.90;;;;;;5076063;28;20240;-53
2023/06/17 09:14:55;;;;;;;16.23;12.40;;;26.40;99.90;;;;;;5076087;28;20770;-55
2023/06/17 09:17:31;;;;;;;17.50;12.83;;;27.00;99.90;;;;;;5077057;28;20620;-54
2023/06/17 09:20:10;;;;;;;16.17;11.90;;;27.60;99.90;;;;;;5074248;28;20341;-55
2023/06/17 09:22:42;;;;;;;12.37;11.07;;;28.20;99.90;;;;;;5076094;28;20249;-53
2023/06/17 09:25:13;;;;;;;15.27;10.60;;;28.80;99.90;;;;;;5076210;28;20233;-55
2023/06/17 09:27:50;;;;;;;12.30;10.17;;;29.50;99.90;;;;;;5075263;28;20230;-52
2023/06/17 09:30:41;;;;;;;16.17;11.40;;;29.50;99.90;;;;;;5072940;28;20730;-55
2023/06/17 09:33:17;;;;;;;14.93;11.73;;;28.60;99.90;;;;;;5077933;28;20222;-52
2023/06/17 09:35:46;;;;;;;13.83;12.40;;;27.80;99.90;;;;;;5076007;28;20226;-56
2023/06/17 09:38:17;;;;;;;13.93;11.57;;;27.00;99.90;;;;;;5075663;28;21301;-56
2023/06/17 09:40:49;;;;;;;14.10;11.50;;;26.30;99.90;;;;;;5073631;28;20724;-56
2023/06/17 09:43:19;;;;;;;13.83;11.30;;;26.10;99.90;;;;;;5076774;28;20784;-55
2023/06/17 09:45:55;;;;;;;15.33;10.93;;;26.90;99.90;;;;;;5076665;28;20227;-54
2023/06/17 09:48:30;;;;;;;15.50;11.23;;;27.50;99.90;;;;;;5076176;28;20272;-55
2023/06/17 09:50:59;;;;;;;13.63;10.47;;;28.10;99.90;;;;;;5073923;28;20696;-56
2023/06/17 09:53:29;;;;;;;15.37;11.27;;;28.80;99.90;;;;;;5075798;28;20234;-55
2023/06/17 09:55:58;;;;;;;12.17;10.10;;;29.20;99.90;;;;;;5075884;28;20260;-54
2023/06/17 09:58:32;;;;;;;13.13;11.73;;;29.50;99.90;;;;;;5075341;28;20234;-53
2023/06/17 10:01:06;;;;;;;15.07;10.77;;;29.70;99.90;;;;;;5073592;28;20241;-56
2023/06/17 10:03:37;;;;;;;12.40;9.47;;;30.10;99.90;;;;;;5054879;28;20222;-56
2023/06/17 10:06:09;;;;;;;12.03;10.07;;;30.40;99.90;;;;;;5075488;28;20222;-55
2023/06/17 10:08:40;;;;;;;14.00;10.60;;;30.40;99.90;;;;;;5075092;28;20605;-54
2023/06/17 10:11:08;;;;;;;11.67;8.77;;;30.70;99.90;;;;;;5073789;28;20287;-53
2023/06/17 10:13:40;;;;;;;12.83;9.47;;;30.90;99.90;;;;;;5075053;28;20587;-53
2023/06/17 10:16:11;;;;;;;12.10;8.97;;;31.00;99.90;;;;;;5062252;28;20283;-52
2023/06/17 10:18:42;;;;;;;9.17;8.20;;;31.20;99.90;;;;;;5079898;28;20243;-54
2023/06/17 10:21:12;;;;;;;10.03;8.77;;;31.30;99.90;;;;;;5075910;28;21016;-55
2023/06/17 10:23:42;;;;;;;11.57;8.93;;;31.00;99.90;;;;;;5075192;28;20755;-56
2023/06/17 10:26:13;;;;;;;10.17;8.70;;;30.80;99.90;;;;;;5076118;28;20704;-53
2023/06/17 10:28:57;;;;;;;9.37;8.47;;;30.90;99.90;;;;;;5074803;28;20223;-54
2023/06/17 10:31:26;;;;;;;11.10;9.13;;;30.90;99.90;;;;;;5072570;28;20239;-53
2023/06/17 10:33:57;;;;;;;9.50;7.83;;;31.10;99.90;;;;;;5074672;28;20243;-55
2023/06/17 10:36:27;;;;;;;8.73;7.80;;;31.30;99.90;;;;;;5078910;28;20214;-55
2023/06/17 10:38:56;;;;;;;12.07;8.80;;;31.50;99.90;;;;;;5080373;28;20773;-56
2023/06/17 10:41:51;;;;;;;9.20;8.20;;;31.50;99.90;;;;;;5078734;28;20227;-54
2023/06/17 10:44:30;;;;;;;9.50;7.87;;;31.80;99.90;;;;;;5078768;28;20723;-55
2023/06/17 10:46:58;;;;;;;9.73;7.50;;;32.20;99.90;;;;;;5080207;28;20234;-54
2023/06/17 10:49:26;;;;;;;11.17;9.60;;;32.40;99.90;;;;;;5079198;28;20243;-55
2023/06/17 10:51:57;;;;;;;9.90;7.87;;;32.20;99.90;;;;;;5080822;28;20601;-50
2023/06/17 10:54:31;;;;;;;11.07;8.27;;;32.20;99.90;;;;;;5082371;28;20223;-55
2023/06/17 10:57:01;;;;;;;11.33;8.07;;;32.60;99.90;;;;;;5079432;28;20221;-52
2023/06/17 10:59:31;;;;;;;11.20;7.87;;;32.50;99.90;;;;;;5079462;28;20219;-53
2023/06/17 11:02:01;;;;;;;10.00;8.27;;;32.90;99.90;;;;;;5077874;28;20236;-55
2023/06/17 11:04:30;;;;;;;10.30;7.53;;;32.30;98.70;;;;;;5080068;28;20229;-55
2023/06/17 11:06:58;;;;;;;8.90;7.10;;;32.10;99.90;;;;;;5080796;28;20261;-55
2023/06/17 11:09:27;;;;;;;11.07;6.97;;;32.30;99.90;;;;;;5079134;28;20224;-55
2023/06/17 11:11:56;;;;;;;9.37;7.27;;;32.40;99.90;;;;;;5080034;28;20240;-53
2023/06/17 11:14:28;;;;;;;8.70;7.07;;;32.50;99.90;;;;;;5080483;28;20229;-54
2023/06/17 11:16:58;;;;;;;7.77;6.97;;;32.80;99.60;;;;;;5081333;28;20232;-55
2023/06/17 11:19:26;;;;;;;9.93;7.47;;;32.90;97.50;;;;;;5078125;28;20735;-52
2023/06/17 11:22:03;;;;;;;9.77;7.07;;;32.90;98.60;;;;;;5076792;28;20238;-53
2023/06/17 11:24:31;;;;;;;7.53;6.60;;;33.20;98.90;;;;;;5074447;28;21306;-55
2023/06/17 11:27:00;;;;;;;9.57;6.57;;;33.20;98.10;;;;;;5073858;28;20224;-54
2023/06/17 11:29:30;;;;;;;7.57;6.73;;;33.00;98.40;;;;;;5070637;28;20260;-53
2023/06/17 11:32:01;;;;;;;7.57;6.33;;;32.60;99.30;;;;;;5073337;28;20240;-55
2023/06/17 11:34:31;;;;;;;7.70;6.60;;;32.90;97.70;;;;;;5073820;28;20720;-56
2023/06/17 11:37:02;;;;;;;8.87;6.47;;;31.90;97.60;;;;;;5074983;28;20284;-56
2023/06/17 11:39:31;;;;;;;8.93;6.80;;;31.00;98.60;;;;;;5071975;28;20775;-50
2023/06/17 11:42:01;;;;;;;8.93;5.93;;;30.10;99.40;;;;;;5073127;28;21470;-55
2023/06/17 11:44:31;;;;;;;7.30;6.27;;;29.80;99.90;;;;;;5074053;28;20278;-55
2023/06/17 11:47:05;;;;;;;6.90;6.20;;;30.20;99.90;;;;;;5073540;28;20222;-54
2023/06/17 11:49:33;;;;;;;7.83;6.00;;;31.40;99.90;;;;;;5071501;28;20227;-54
2023/06/17 11:52:05;;;;;;;8.37;6.43;;;32.40;98.80;;;;;;5073905;28;21180;-55
2023/06/17 11:54:34;;;;;;;8.37;6.20;;;32.80;97.20;;;;;;5074012;28;20312;-54
2023/06/17 11:57:02;;;;;;;7.87;6.33;;;32.60;97.10;;;;;;5074521;28;20236;-54
2023/06/17 11:59:31;;;;;;;7.33;5.80;;;31.90;97.20;;;;;;5075450;28;20622;-56
2023/06/17 12:01:59;;;;;;;7.33;6.33;;;31.70;98.30;;;;;;5076304;28;20226;-55
2023/06/17 12:04:30;;;;;;;9.07;6.03;;;31.70;98.30;;;;;;5077210;28;20224;-54
2023/06/17 12:06:58;;;;;;;8.37;6.50;;;31.90;98.30;;;;;;5077740;28;20758;-55
2023/06/17 12:09:27;;;;;;;7.90;6.00;;;31.60;98.20;;;;;;5074948;28;20593;-55
2023/06/17 12:11:55;;;;;;;8.47;6.10;;;31.30;99.00;;;;;;5076044;28;20231;-52
2023/06/17 12:14:25;;;;;;;10.20;6.73;;;30.60;98.70;;;;;;5077496;28;20234;-53
2023/06/17 12:16:54;;;;;;;8.13;5.83;;;30.10;97.00;;;;;;5077276;28;20315;-55
2023/06/17 12:19:23;;;;;;;6.30;5.70;;;30.20;98.60;;;;;;5076018;28;20678;-54
2023/06/17 12:21:52;;;;;;;8.17;6.50;;;30.00;99.40;;;;;;5075972;28;20236;-54
2023/06/17 12:24:21;;;;;;;6.73;5.83;;;29.70;99.90;;;;;;5078385;28;20219;-54
2023/06/17 12:26:49;;;;;;;7.53;6.03;;;29.40;99.60;;;;;;5077790;28;20228;-53
2023/06/17 12:29:17;;;;;;;7.80;6.53;;;29.00;99.20;;;;;;5076490;28;20219;-52
2023/06/17 12:31:53;;;;;;;8.53;6.30;;;28.80;99.90;;;;;;5074920;28;20245;-54
2023/06/17 12:34:21;;;;;;;8.63;6.07;;;28.70;99.90;;;;;;5077447;28;20767;-54
2023/06/17 12:36:50;;;;;;;6.63;5.80;;;28.80;99.90;;;;;;5077521;28;20232;-54
2023/06/17 12:39:20;;;;;;;6.13;5.53;;;28.90;99.90;;;;;;5075694;28;20283;-52
2023/06/17 12:41:48;;;;;;;6.33;5.73;;;29.30;99.90;;;;;;5075703;28;20223;-55
2023/06/17 12:44:17;;;;;;;6.30;5.70;;;30.00;99.90;;;;;;5077011;28;20782;-52